Terminal Aerodrome Forecast
Issued by NWS

Home | Current Version | Previous Version | Text Only | Print | Product List | Glossary On
Versions: 1 2 3 4 5 6 7 8 9 10 11 12
000
FTUS42 KMLB 211700
TAFLEE
TAF
KLEE 211735Z 2118/2218 17007KT P6SM SCT040
     FM212200 23005KT P6SM VCTS SCT040CB SCT250
     FM220200 15004KT P6SM FEW060 SCT250
     FM220600 18002KT P6SM FEW250
     FM221500 22004KT P6SM FEW040=

USA.gov is the U.S. government's official web portal to all federal, state and local government web resources and services.